Kennesaw, Georgia
Current Conditions -  °F | °C
As of 5:47 PM on Friday 28 Nov 2014 (Local Time) from KRYY Reporting Station
Clear Clear  
Wind Chill: 39°   Ceiling: Unl
Heat Index: 43°   Visibility: 10mi
Dew Point: 16°   Wind: 6mph
Humidity: 34%   Direction: 270°W
Pressure: 30.3"   Gusts: NA
Location:  34.02°N, 84.62°W
Report Text: KRYY 282247Z 27005KT 10SM SKC 06/M09 A3030
Loading
Personal Weather Stations






























Interactive Weather Map New forecast layout! Learn more

10-Day Weather Forecast

Advertisements
Track Severe Weather on mobile